createdAt,value
2019-06-20T00:02:09.069Z,19.47
2019-06-20T00:04:40.733Z,19.47
2019-06-20T00:07:13.891Z,19.58
2019-06-20T00:09:45.457Z,19.62
2019-06-20T00:12:16.922Z,19.49
2019-06-20T00:14:48.337Z,19.40
2019-06-20T00:17:20.770Z,19.47
2019-06-20T00:19:52.206Z,19.54
2019-06-20T00:22:23.745Z,19.49
2019-06-20T00:24:55.301Z,19.56
2019-06-20T00:27:26.814Z,19.58
2019-06-20T00:29:58.287Z,19.62
2019-06-20T00:32:29.867Z,19.66
2019-06-20T00:35:01.389Z,19.71
2019-06-20T00:37:33.034Z,19.74
2019-06-20T00:40:05.323Z,19.75
2019-06-20T00:42:36.833Z,19.69
2019-06-20T00:45:08.912Z,19.65
2019-06-20T00:47:40.355Z,19.63
2019-06-20T00:50:12.831Z,19.65
2019-06-20T00:52:44.335Z,19.59
2019-06-20T00:55:15.807Z,19.55
2019-06-20T00:57:47.492Z,19.62
2019-06-20T01:00:20.388Z,19.58
2019-06-20T01:02:51.936Z,19.62
2019-06-20T01:05:23.663Z,19.62
2019-06-20T01:07:55.170Z,19.66
2019-06-20T01:10:26.697Z,19.74
2019-06-20T01:12:58.415Z,19.79
2019-06-20T01:15:29.930Z,19.75
2019-06-20T01:18:01.435Z,19.79
2019-06-20T01:20:32.925Z,19.78
2019-06-20T01:23:07.005Z,19.72
2019-06-20T01:25:42.285Z,19.62
2019-06-20T01:28:13.782Z,19.73
2019-06-20T01:30:45.539Z,19.73
2019-06-20T01:33:17.349Z,19.69
2019-06-20T01:35:49.054Z,19.78
2019-06-20T01:38:20.613Z,19.84
2019-06-20T01:40:52.120Z,19.85
2019-06-20T01:43:23.648Z,19.79
2019-06-20T01:45:55.182Z,19.82
2019-06-20T01:48:28.154Z,19.76
2019-06-20T01:50:59.727Z,19.78
2019-06-20T01:53:31.626Z,19.77
2019-06-20T01:56:03.124Z,19.82
2019-06-20T01:58:35.916Z,19.78
2019-06-20T02:01:07.435Z,19.71
2019-06-20T02:03:39.354Z,19.67
2019-06-20T02:06:10.797Z,19.70
2019-06-20T02:08:42.438Z,19.74
2019-06-20T02:11:13.977Z,19.75
2019-06-20T02:13:45.513Z,19.82
2019-06-20T02:16:17.047Z,19.85
2019-06-20T02:18:48.488Z,19.83
2019-06-20T02:21:20.160Z,19.85
2019-06-20T02:23:51.708Z,19.90
2019-06-20T02:26:23.102Z,19.95
2019-06-20T02:28:54.651Z,19.96
2019-06-20T02:31:27.211Z,19.94
2019-06-20T02:33:58.770Z,19.91
2019-06-20T02:36:30.244Z,19.94
2019-06-20T02:39:01.890Z,19.95
2019-06-20T02:41:35.517Z,19.94
2019-06-20T02:44:28.420Z,19.94
2019-06-20T02:46:42.096Z,19.97
2019-06-20T02:49:13.623Z,19.98
2019-06-20T02:51:45.409Z,20.00
2019-06-20T02:54:16.890Z,20.02
2019-06-20T02:56:48.433Z,20.07
2019-06-20T02:59:19.971Z,20.09
2019-06-20T03:01:51.546Z,20.07
2019-06-20T03:04:23.076Z,20.07
2019-06-20T03:06:54.834Z,20.05
2019-06-20T03:09:26.301Z,19.99
2019-06-20T03:11:58.120Z,19.97
2019-06-20T03:14:45.316Z,19.98
2019-06-20T03:17:14.997Z,20.02
2019-06-20T03:19:47.601Z,20.01
2019-06-20T03:22:19.205Z,20.01
2019-06-20T03:24:51.921Z,20.06
2019-06-20T03:27:23.684Z,20.10
2019-06-20T03:29:55.135Z,20.12
2019-06-20T03:32:26.594Z,20.12
2019-06-20T03:34:58.082Z,20.14
2019-06-20T03:37:29.563Z,20.17
2019-06-20T03:40:01.061Z,20.16
2019-06-20T03:42:32.567Z,20.11
2019-06-20T03:45:04.079Z,20.13
2019-06-20T03:47:37.388Z,20.10
2019-06-20T03:50:09.558Z,20.13
2019-06-20T03:52:41.113Z,20.16
2019-06-20T03:55:13.734Z,20.10
2019-06-20T03:57:45.249Z,20.07
2019-06-20T04:00:17.174Z,20.08
2019-06-20T04:02:48.651Z,20.00
2019-06-20T04:05:21.251Z,20.04
2019-06-20T04:07:52.730Z,19.94
2019-06-20T04:10:25.376Z,19.90
2019-06-20T04:12:57.947Z,19.88
2019-06-20T04:15:29.744Z,19.77
2019-06-20T04:18:01.449Z,19.83
2019-06-20T04:20:33.162Z,19.78
2019-06-20T04:23:05.225Z,19.75
2019-06-20T04:25:36.632Z,19.73
2019-06-20T04:28:08.148Z,19.71
2019-06-20T04:30:39.725Z,19.62
2019-06-20T04:33:11.234Z,19.61
2019-06-20T04:35:42.703Z,19.65
2019-06-20T04:38:15.272Z,19.61
2019-06-20T04:40:46.698Z,19.64
2019-06-20T04:43:18.185Z,19.77
2019-06-20T04:46:10.228Z,19.80
2019-06-20T04:48:41.658Z,19.50
2019-06-20T04:51:13.086Z,19.26
2019-06-20T04:53:44.833Z,19.21
2019-06-20T04:56:16.298Z,19.23
2019-06-20T04:58:47.815Z,19.10
2019-06-20T05:01:19.310Z,19.15
2019-06-20T05:03:50.870Z,19.17
2019-06-20T05:06:22.357Z,19.09
2019-06-20T05:08:53.914Z,18.90
2019-06-20T05:11:25.365Z,18.90
2019-06-20T05:13:56.878Z,19.06
2019-06-20T05:16:28.405Z,19.05
2019-06-20T05:19:00.038Z,19.09
2019-06-20T05:21:31.535Z,19.15
2019-06-20T05:24:02.974Z,19.07
2019-06-20T05:26:34.508Z,18.96
2019-06-20T05:29:06.007Z,19.10
2019-06-20T05:31:37.518Z,19.09
2019-06-20T05:34:09.034Z,19.07
2019-06-20T05:36:40.552Z,19.05
2019-06-20T05:39:12.038Z,18.89
2019-06-20T05:41:43.750Z,18.93
2019-06-20T05:44:15.225Z,18.84
2019-06-20T05:46:47.192Z,18.93
2019-06-20T05:49:19.097Z,18.86
2019-06-20T05:51:50.665Z,18.81
2019-06-20T05:54:22.388Z,18.86
2019-06-20T05:56:54.242Z,18.78
2019-06-20T05:59:25.836Z,18.75
2019-06-20T06:01:57.537Z,18.86
2019-06-20T06:04:29.503Z,18.91
2019-06-20T06:07:01.262Z,18.87
2019-06-20T06:09:33.034Z,18.96
2019-06-20T06:12:04.583Z,18.93
2019-06-20T06:14:37.153Z,19.00
2019-06-20T06:17:08.637Z,18.99
2019-06-20T06:19:40.080Z,19.04
2019-06-20T06:22:11.643Z,19.07
2019-06-20T06:24:43.235Z,19.24
2019-06-20T06:27:14.831Z,19.20
2019-06-20T06:29:46.378Z,19.20
2019-06-20T06:32:20.087Z,19.14
2019-06-20T06:34:51.214Z,19.09
2019-06-20T06:37:22.721Z,19.08
2019-06-20T06:39:54.237Z,18.98
2019-06-20T06:42:25.732Z,18.91
2019-06-20T06:44:57.531Z,18.93
2019-06-20T06:47:29.174Z,18.87
2019-06-20T06:50:01.223Z,18.81
2019-06-20T06:52:32.894Z,18.74
2019-06-20T06:55:05.589Z,18.71
2019-06-20T06:57:37.140Z,18.73
2019-06-20T07:00:10.944Z,18.71
2019-06-20T07:02:42.762Z,18.80
2019-06-20T07:05:14.739Z,18.87
2019-06-20T07:07:46.294Z,18.82
2019-06-20T07:10:18.480Z,18.68
2019-06-20T07:12:50.010Z,18.57
2019-06-20T07:15:21.964Z,18.64
2019-06-20T07:17:53.438Z,18.69
2019-06-20T07:20:25.235Z,18.68
2019-06-20T07:22:56.932Z,18.62
2019-06-20T07:25:29.982Z,18.57
2019-06-20T07:28:03.618Z,18.53
2019-06-20T07:30:36.244Z,18.61
2019-06-20T07:33:07.752Z,18.58
2019-06-20T07:35:41.838Z,18.67
2019-06-20T07:38:12.712Z,18.60
2019-06-20T07:40:45.526Z,18.58
2019-06-20T07:43:17.090Z,18.61
2019-06-20T07:46:02.096Z,18.67
2019-06-20T07:48:21.899Z,18.45
2019-06-20T07:50:53.720Z,18.50
2019-06-20T07:53:25.321Z,18.39
2019-06-20T07:55:56.936Z,18.29
2019-06-20T07:58:29.493Z,18.27
2019-06-20T08:01:01.031Z,18.30
2019-06-20T08:03:32.574Z,18.30
2019-06-20T08:06:04.531Z,18.36
2019-06-20T08:08:36.282Z,18.34
2019-06-20T08:11:08.421Z,18.27
2019-06-20T08:13:40.265Z,18.28
2019-06-20T08:16:11.814Z,18.38
2019-06-20T08:18:43.325Z,18.38
2019-06-20T08:21:15.004Z,18.45
2019-06-20T08:23:46.512Z,18.46
2019-06-20T08:26:18.108Z,18.44
2019-06-20T08:28:49.636Z,18.40
2019-06-20T08:31:21.188Z,18.63
2019-06-20T08:33:52.719Z,18.64
2019-06-20T08:36:24.358Z,18.71
2019-06-20T08:38:57.436Z,18.66
2019-06-20T08:41:29.552Z,18.66
2019-06-20T08:44:01.785Z,18.74
2019-06-20T08:46:33.539Z,18.72
2019-06-20T08:49:05.826Z,18.84
2019-06-20T08:51:37.782Z,18.90
2019-06-20T08:54:09.576Z,19.25
2019-06-20T08:56:43.694Z,19.41
2019-06-20T08:59:24.421Z,19.55
2019-06-20T09:01:48.545Z,19.72
2019-06-20T09:04:22.478Z,19.89
2019-06-20T09:06:55.741Z,19.68
2019-06-20T09:09:27.222Z,19.64
2019-06-20T09:12:00.292Z,19.47
2019-06-20T09:14:32.116Z,19.40
2019-06-20T09:17:03.683Z,19.31
2019-06-20T09:19:35.300Z,19.16
2019-06-20T09:22:07.229Z,19.08
2019-06-20T09:24:38.869Z,19.14
2019-06-20T09:27:10.790Z,19.15
2019-06-20T09:29:42.373Z,19.25
2019-06-20T09:32:13.968Z,19.14
2019-06-20T09:34:45.525Z,19.12
2019-06-20T09:37:17.276Z,19.00
2019-06-20T09:39:51.599Z,19.06
2019-06-20T09:42:22.907Z,19.12
2019-06-20T09:44:54.552Z,19.27
2019-06-20T09:47:26.560Z,19.45
2019-06-20T09:49:59.028Z,19.59
2019-06-20T09:52:30.612Z,19.56
2019-06-20T09:55:02.205Z,19.62
2019-06-20T09:57:33.777Z,19.72
2019-06-20T10:00:10.370Z,19.77
2019-06-20T10:02:40.967Z,19.71
2019-06-20T10:05:13.438Z,19.83
2019-06-20T10:07:45.558Z,20.02
2019-06-20T10:10:18.566Z,20.25
2019-06-20T10:12:50.081Z,20.40
2019-06-20T10:15:25.506Z,20.62
2019-06-20T10:17:57.007Z,20.78
2019-06-20T10:20:28.961Z,20.40
2019-06-20T10:23:00.545Z,20.37
2019-06-20T10:25:32.020Z,20.29
2019-06-20T10:28:03.732Z,20.49
2019-06-20T10:30:35.234Z,20.62
2019-06-20T10:33:06.829Z,20.69
2019-06-20T10:35:40.471Z,20.70
2019-06-20T10:38:12.106Z,20.67
2019-06-20T10:40:46.055Z,20.87
2019-06-20T10:43:17.028Z,20.59
2019-06-20T10:45:49.450Z,20.69
2019-06-20T10:48:21.091Z,20.87
2019-06-20T10:50:52.765Z,20.87
2019-06-20T10:53:24.450Z,20.55
2019-06-20T10:55:56.185Z,20.28
2019-06-20T10:58:27.959Z,20.01
2019-06-20T11:00:59.498Z,20.31
2019-06-20T11:03:31.069Z,20.84
2019-06-20T11:06:02.648Z,21.05
2019-06-20T11:08:34.258Z,20.83
2019-06-20T11:11:05.810Z,20.67
2019-06-20T11:13:38.996Z,20.32
2019-06-20T11:16:11.026Z,19.85
2019-06-20T11:18:43.618Z,19.67
2019-06-20T11:21:15.328Z,19.80
2019-06-20T11:23:50.335Z,20.04
2019-06-20T11:26:21.883Z,20.19
2019-06-20T11:28:55.829Z,20.59
2019-06-20T11:31:27.426Z,20.91
2019-06-20T11:33:59.003Z,21.02
2019-06-20T11:36:30.505Z,20.57
2019-06-20T11:39:03.708Z,20.38
2019-06-20T11:41:38.002Z,20.12
2019-06-20T11:44:09.622Z,20.07
2019-06-20T11:46:41.090Z,20.03
2019-06-20T11:49:14.302Z,20.17
2019-06-20T11:51:45.799Z,20.42
2019-06-20T11:54:17.849Z,20.29
2019-06-20T11:56:49.345Z,20.38
2019-06-20T11:59:21.287Z,20.49
2019-06-20T12:01:52.985Z,20.94
2019-06-20T12:04:24.564Z,20.82
2019-06-20T12:06:56.079Z,20.93
2019-06-20T12:09:27.504Z,21.11
2019-06-20T12:11:58.987Z,21.12
2019-06-20T12:14:30.772Z,20.72
2019-06-20T12:17:02.276Z,20.68
2019-06-20T12:19:34.706Z,20.49
2019-06-20T12:22:06.395Z,20.85
2019-06-20T12:24:40.011Z,20.36
2019-06-20T12:27:12.658Z,20.33
2019-06-20T12:29:46.428Z,20.08
2019-06-20T12:32:21.227Z,20.06
2019-06-20T12:34:52.782Z,20.14
2019-06-20T12:37:24.472Z,20.11
2019-06-20T12:39:56.234Z,20.08
2019-06-20T12:42:27.734Z,20.13
2019-06-20T12:44:59.216Z,20.29
2019-06-20T12:47:30.628Z,20.50
2019-06-20T12:50:02.156Z,20.73
2019-06-20T12:52:33.655Z,21.01
2019-06-20T12:55:05.525Z,21.31
2019-06-20T12:57:38.469Z,21.14
2019-06-20T13:00:11.401Z,21.14
2019-06-20T13:02:43.744Z,21.27
2019-06-20T13:05:17.599Z,21.12
2019-06-20T13:07:50.359Z,21.23
2019-06-20T13:10:23.693Z,21.13
2019-06-20T13:12:55.213Z,21.05
2019-06-20T13:15:27.146Z,20.95
2019-06-20T13:17:59.074Z,21.02
2019-06-20T13:20:32.970Z,21.19
2019-06-20T13:23:04.595Z,21.46
2019-06-20T13:25:36.226Z,21.46
2019-06-20T13:28:07.779Z,21.49
2019-06-20T13:30:46.869Z,21.32
2019-06-20T13:33:15.767Z,21.41
2019-06-20T13:35:48.634Z,21.24
2019-06-20T13:38:21.607Z,21.47
2019-06-20T13:40:53.228Z,21.51
2019-06-20T13:43:24.713Z,21.58
2019-06-20T13:45:56.405Z,21.82
2019-06-20T13:48:27.921Z,22.13
2019-06-20T13:50:59.616Z,21.50
2019-06-20T13:53:31.215Z,21.72
2019-06-20T13:56:04.343Z,22.30
2019-06-20T13:58:35.855Z,22.56
2019-06-20T14:01:07.363Z,22.61
2019-06-20T14:03:40.513Z,22.58
2019-06-20T14:06:12.166Z,22.65
2019-06-20T14:08:44.796Z,22.71
2019-06-20T14:11:17.538Z,22.82
2019-06-20T14:13:52.600Z,22.87
2019-06-20T14:16:22.701Z,22.77
2019-06-20T14:18:54.202Z,22.91
2019-06-20T14:21:25.955Z,22.56
2019-06-20T14:23:57.647Z,22.57
2019-06-20T14:26:29.195Z,22.75
2019-06-20T14:29:00.880Z,22.68
2019-06-20T14:31:33.006Z,22.90
2019-06-20T14:34:04.851Z,23.07
2019-06-20T14:36:36.541Z,22.84
2019-06-20T14:39:09.940Z,22.96
2019-06-20T14:41:42.077Z,23.01
2019-06-20T14:44:14.803Z,22.98
2019-06-20T14:46:46.396Z,22.72
2019-06-20T14:49:18.213Z,22.74
2019-06-20T14:51:50.160Z,22.91
2019-06-20T14:54:21.762Z,22.78
2019-06-20T14:56:53.938Z,22.83
2019-06-20T14:59:25.519Z,22.86
2019-06-20T15:01:56.938Z,22.74
2019-06-20T15:04:28.744Z,22.55
2019-06-20T15:07:01.924Z,22.21
2019-06-20T15:09:33.470Z,22.11
2019-06-20T15:12:05.009Z,22.17
2019-06-20T15:14:38.371Z,21.85
2019-06-20T15:17:10.863Z,21.65
2019-06-20T15:19:42.371Z,21.83
2019-06-20T15:22:13.909Z,21.95
2019-06-20T15:24:48.509Z,21.75
2019-06-20T15:27:18.850Z,21.68
2019-06-20T15:29:52.213Z,21.93
2019-06-20T15:32:25.714Z,21.68
2019-06-20T15:34:57.356Z,21.47
2019-06-20T15:37:28.971Z,21.46
2019-06-20T15:40:00.481Z,21.19
2019-06-20T15:42:32.095Z,20.80
2019-06-20T15:45:04.570Z,20.85
2019-06-20T15:47:37.295Z,20.65
2019-06-20T15:50:09.366Z,20.62
2019-06-20T15:52:45.177Z,20.54
2019-06-20T15:55:20.010Z,20.85
2019-06-20T15:57:54.063Z,20.78
2019-06-20T16:00:24.838Z,20.55
2019-06-20T16:03:09.598Z,20.55
2019-06-20T16:05:30.693Z,20.71
2019-06-20T16:08:04.284Z,20.78
2019-06-20T16:10:35.761Z,21.04
2019-06-20T16:13:07.263Z,21.19
2019-06-20T16:15:38.898Z,21.16
2019-06-20T16:18:12.570Z,21.29
2019-06-20T16:20:44.179Z,21.47
2019-06-20T16:23:15.931Z,21.42
2019-06-20T16:25:47.684Z,21.67
2019-06-20T16:28:19.520Z,21.78
2019-06-20T16:30:51.010Z,21.80
2019-06-20T16:33:25.460Z,21.71
2019-06-20T16:35:56.797Z,21.69
2019-06-20T16:38:28.478Z,21.69
2019-06-20T16:41:00.043Z,21.65
2019-06-20T16:43:31.713Z,21.33
2019-06-20T16:46:04.071Z,21.19
2019-06-20T16:48:35.586Z,21.20
2019-06-20T16:51:07.087Z,21.43
2019-06-20T16:53:38.583Z,21.53
2019-06-20T16:56:10.095Z,21.50
2019-06-20T16:58:41.932Z,21.59
2019-06-20T17:01:15.404Z,21.65
2019-06-20T17:03:46.899Z,21.65
2019-06-20T17:06:18.546Z,21.53
2019-06-20T17:08:50.000Z,21.65
2019-06-20T17:11:21.537Z,21.60
2019-06-20T17:13:53.074Z,21.34
2019-06-20T17:16:25.215Z,21.34
2019-06-20T17:18:57.601Z,21.31
2019-06-20T17:21:29.153Z,21.34
2019-06-20T17:24:00.786Z,21.40
2019-06-20T17:26:32.492Z,21.33
2019-06-20T17:29:04.250Z,21.28
2019-06-20T17:31:35.803Z,21.25
2019-06-20T17:34:07.875Z,21.17
2019-06-20T17:36:46.660Z,21.26
2019-06-20T17:39:18.178Z,21.07
2019-06-20T17:41:55.192Z,20.87
2019-06-20T17:44:23.079Z,21.00
2019-06-20T17:46:54.616Z,20.90
2019-06-20T17:49:26.246Z,20.66
2019-06-20T17:51:57.800Z,20.68
2019-06-20T17:54:29.207Z,20.75
2019-06-20T17:57:00.874Z,20.76
2019-06-20T17:59:32.471Z,20.83
2019-06-20T18:02:04.060Z,20.66
2019-06-20T18:04:35.835Z,20.76
2019-06-20T18:07:07.407Z,20.72
2019-06-20T18:09:38.910Z,20.67
2019-06-20T18:12:12.176Z,20.69
2019-06-20T18:14:44.062Z,20.54
2019-06-20T18:17:15.809Z,20.62
2019-06-20T18:19:47.345Z,20.54
2019-06-20T18:22:18.863Z,20.48
2019-06-20T18:24:50.387Z,20.42
2019-06-20T18:27:21.955Z,20.28
2019-06-20T18:29:53.434Z,20.30
2019-06-20T18:32:26.082Z,20.38
2019-06-20T18:35:01.936Z,20.26
2019-06-20T18:37:31.969Z,20.28
2019-06-20T18:40:04.038Z,20.33
2019-06-20T18:42:36.206Z,20.23
2019-06-20T18:45:09.278Z,20.13
2019-06-20T18:47:40.914Z,20.12
2019-06-20T18:50:16.130Z,20.20
2019-06-20T18:52:52.336Z,20.10
2019-06-20T18:55:21.197Z,20.04
2019-06-20T18:57:52.905Z,20.02
2019-06-20T19:00:34.585Z,20.11
2019-06-20T19:03:00.162Z,19.99
2019-06-20T19:05:32.706Z,20.05
2019-06-20T19:08:04.269Z,19.99
2019-06-20T19:10:35.876Z,19.90
2019-06-20T19:13:07.610Z,19.96
2019-06-20T19:15:39.224Z,19.94
2019-06-20T19:18:10.862Z,19.91
2019-06-20T19:20:42.796Z,19.76
2019-06-20T19:23:14.728Z,19.73
2019-06-20T19:25:46.362Z,19.73
2019-06-20T19:28:17.931Z,19.78
2019-06-20T19:30:52.879Z,19.75
2019-06-20T19:33:26.408Z,19.68
2019-06-20T19:35:57.988Z,19.67
2019-06-20T19:38:29.770Z,19.71
2019-06-20T19:41:01.363Z,19.67
2019-06-20T19:43:32.903Z,19.66
2019-06-20T19:46:04.616Z,19.66
2019-06-20T19:48:36.956Z,19.59
2019-06-20T19:51:08.858Z,19.56
2019-06-20T19:53:45.754Z,19.57
2019-06-20T19:56:15.419Z,19.57
2019-06-20T19:58:47.349Z,19.57
2019-06-20T20:01:18.937Z,19.57
2019-06-20T20:03:50.538Z,19.53
2019-06-20T20:06:22.494Z,19.48
2019-06-20T20:08:54.133Z,19.45
2019-06-20T20:11:25.687Z,19.39
2019-06-20T20:13:58.408Z,19.41
2019-06-20T20:16:29.920Z,19.39
2019-06-20T20:19:01.412Z,19.36
2019-06-20T20:21:33.174Z,19.37
2019-06-20T20:24:04.754Z,19.33
2019-06-20T20:26:36.888Z,19.32
2019-06-20T20:29:08.461Z,19.27
2019-06-20T20:31:40.016Z,19.28
2019-06-20T20:34:12.020Z,19.27
2019-06-20T20:36:43.915Z,19.26
2019-06-20T20:39:17.057Z,19.23
2019-06-20T20:41:50.748Z,19.21
2019-06-20T20:44:23.227Z,19.16
2019-06-20T20:46:54.822Z,19.13
2019-06-20T20:49:26.392Z,19.11
2019-06-20T20:51:57.846Z,19.09
2019-06-20T20:54:29.380Z,19.09
2019-06-20T20:57:01.063Z,19.03
2019-06-20T20:59:33.697Z,19.04
2019-06-20T21:02:07.288Z,19.01
2019-06-20T21:04:39.463Z,18.98
2019-06-20T21:07:11.053Z,18.98
2019-06-20T21:09:42.575Z,18.97
2019-06-20T21:12:14.925Z,18.93
2019-06-20T21:14:47.416Z,18.88
2019-06-20T21:17:19.873Z,18.87
2019-06-20T21:19:51.465Z,18.81
2019-06-20T21:22:23.019Z,18.78
2019-06-20T21:24:54.480Z,18.75
2019-06-20T21:27:26.047Z,18.72
2019-06-20T21:29:57.615Z,18.70
2019-06-20T21:32:29.156Z,18.67
2019-06-20T21:35:00.900Z,18.67
2019-06-20T21:37:33.653Z,18.65
2019-06-20T21:40:05.577Z,18.62
2019-06-20T21:42:37.417Z,18.57
2019-06-20T21:45:10.827Z,18.53
2019-06-20T21:47:42.389Z,18.53
2019-06-20T21:50:14.298Z,18.51
2019-06-20T21:52:45.919Z,18.51
2019-06-20T21:55:17.802Z,18.49
2019-06-20T21:57:49.217Z,18.47
2019-06-20T22:00:30.575Z,18.46
2019-06-20T22:03:03.674Z,18.44
2019-06-20T22:05:35.226Z,18.42
2019-06-20T22:08:07.415Z,18.43
2019-06-20T22:10:40.083Z,18.41
2019-06-20T22:13:11.706Z,18.37
2019-06-20T22:15:43.406Z,18.25
2019-06-20T22:18:15.264Z,18.26
2019-06-20T22:20:46.822Z,18.25
2019-06-20T22:23:18.327Z,18.16
2019-06-20T22:25:49.950Z,18.10
2019-06-20T22:28:21.949Z,18.13
2019-06-20T22:30:55.643Z,18.15
2019-06-20T22:33:27.257Z,18.17
2019-06-20T22:35:58.731Z,18.21
2019-06-20T22:38:30.136Z,18.18
2019-06-20T22:41:01.763Z,18.19
2019-06-20T22:43:33.244Z,18.22
2019-06-20T22:46:04.852Z,18.22
2019-06-20T22:48:39.013Z,18.24
2019-06-20T22:51:13.685Z,18.24
2019-06-20T22:53:43.733Z,18.21
2019-06-20T22:56:15.188Z,18.25
2019-06-20T22:58:46.654Z,18.25
2019-06-20T23:01:18.076Z,18.27
2019-06-20T23:03:49.540Z,18.25
2019-06-20T23:06:21.025Z,18.22
2019-06-20T23:08:52.506Z,18.22
2019-06-20T23:11:23.991Z,18.23
2019-06-20T23:13:55.782Z,18.21
2019-06-20T23:16:27.266Z,18.19
2019-06-20T23:18:58.723Z,18.15
2019-06-20T23:21:30.187Z,18.13
2019-06-20T23:24:01.632Z,18.10
2019-06-20T23:26:52.281Z,18.09
2019-06-20T23:29:23.789Z,16.21
2019-06-20T23:31:56.158Z,18.06
2019-06-20T23:34:27.658Z,18.00
2019-06-20T23:37:12.221Z,17.91
2019-06-20T23:39:32.379Z,17.90
2019-06-20T23:42:04.817Z,17.89
2019-06-20T23:44:36.305Z,17.91
2019-06-20T23:47:08.286Z,17.89
2019-06-20T23:49:39.858Z,17.87
2019-06-20T23:52:16.185Z,17.87
2019-06-20T23:54:47.808Z,17.90
2019-06-20T23:57:19.633Z,17.92
2019-06-20T23:59:51.173Z,17.94
